createdAt,value
2022-09-10T00:01:33.792Z,96.70
2022-09-10T00:04:02.845Z,97.20
2022-09-10T00:06:32.979Z,97.30
2022-09-10T00:09:01.247Z,97.20
2022-09-10T00:11:31.874Z,97.40
2022-09-10T00:14:04.063Z,97.10
2022-09-10T00:16:32.165Z,97.70
2022-09-10T00:19:00.977Z,97.60
2022-09-10T00:21:29.439Z,97.80
2022-09-10T00:23:57.046Z,97.50
2022-09-10T00:26:26.608Z,97.10
2022-09-10T00:28:55.561Z,97.10
2022-09-10T00:31:24.304Z,97.00
2022-09-10T00:33:52.414Z,97.30
2022-09-10T00:36:22.439Z,97.50
2022-09-10T00:38:50.389Z,97.50
2022-09-10T00:41:18.954Z,97.50
2022-09-10T00:44:07.887Z,97.40
2022-09-10T00:46:37.811Z,97.40
2022-09-10T00:49:14.542Z,97.60
2022-09-10T00:51:42.701Z,97.10
2022-09-10T00:54:09.597Z,97.40
2022-09-10T00:56:37.141Z,97.70
2022-09-10T00:59:05.369Z,97.40
2022-09-10T01:01:33.586Z,97.50
2022-09-10T01:04:01.383Z,97.40
2022-09-10T01:06:28.906Z,97.80
2022-09-10T01:08:55.689Z,98.30
2022-09-10T01:11:42.402Z,97.90
2022-09-10T01:14:24.255Z,97.70
2022-09-10T01:17:21.704Z,97.10
2022-09-10T01:20:24.797Z,97.30
2022-09-10T01:23:17.871Z,96.90
2022-09-10T01:25:57.034Z,97.20
2022-09-10T01:28:35.317Z,97.00
2022-09-10T01:31:36.487Z,96.90
2022-09-10T01:34:35.684Z,96.90
2022-09-10T01:37:14.279Z,97.00
2022-09-10T01:39:42.154Z,97.00
2022-09-10T01:42:09.133Z,97.30
2022-09-10T01:44:42.930Z,97.40
2022-09-10T01:47:21.920Z,97.20
2022-09-10T01:50:07.828Z,97.20
2022-09-10T01:53:14.248Z,97.10
2022-09-10T01:56:17.494Z,97.20
2022-09-10T01:58:46.163Z,97.60
2022-09-10T02:01:29.646Z,97.60
2022-09-10T02:04:03.224Z,97.70
2022-09-10T02:06:34.450Z,98.00
2022-09-10T02:09:03.416Z,98.30
2022-09-10T02:11:31.455Z,98.20
2022-09-10T02:14:01.213Z,98.30
2022-09-10T02:16:55.973Z,98.30
2022-09-10T02:19:22.648Z,98.30
2022-09-10T02:21:52.044Z,98.30
2022-09-10T02:24:18.868Z,98.10
2022-09-10T02:26:46.542Z,98.30
2022-09-10T02:29:15.784Z,98.30
2022-09-10T02:31:43.918Z,97.80
2022-09-10T02:34:12.965Z,97.30
2022-09-10T02:36:40.381Z,97.20
2022-09-10T02:39:07.994Z,97.30
2022-09-10T02:41:35.082Z,97.90
2022-09-10T02:44:03.811Z,98.30
2022-09-10T02:46:30.840Z,98.30
2022-09-10T02:48:58.369Z,98.30
2022-09-10T02:51:25.973Z,98.30
2022-09-10T02:53:52.765Z,98.30
2022-09-10T02:56:20.062Z,98.30
2022-09-10T02:58:46.829Z,98.30
2022-09-10T03:01:18.132Z,98.30
2022-09-10T03:03:51.684Z,98.30
2022-09-10T03:06:20.150Z,98.30
2022-09-10T03:08:47.369Z,98.30
2022-09-10T03:11:16.501Z,98.30
2022-09-10T03:13:45.713Z,98.30
2022-09-10T03:16:13.591Z,98.30
2022-09-10T03:18:41.363Z,98.30
2022-09-10T03:21:14.841Z,98.30
2022-09-10T03:23:43.602Z,98.30
2022-09-10T03:26:11.685Z,98.30
2022-09-10T03:28:38.609Z,98.30
2022-09-10T03:31:07.374Z,98.30
2022-09-10T03:33:43.457Z,98.30
2022-09-10T03:36:13.142Z,98.30
2022-09-10T03:38:42.187Z,98.30
2022-09-10T03:41:09.811Z,98.00
2022-09-10T03:43:36.965Z,97.90
2022-09-10T03:46:07.492Z,98.30
2022-09-10T03:48:39.401Z,98.10
2022-09-10T03:51:08.001Z,98.30
2022-09-10T03:53:34.859Z,98.30
2022-09-10T03:56:03.322Z,98.30
2022-09-10T03:58:30.122Z,98.30
2022-09-10T04:00:56.878Z,98.20
2022-09-10T04:03:24.374Z,98.30
2022-09-10T04:05:51.897Z,98.30
2022-09-10T04:08:20.487Z,98.30
2022-09-10T04:10:48.104Z,98.30
2022-09-10T04:13:15.568Z,98.30
2022-09-10T04:15:47.004Z,98.30
2022-09-10T04:18:14.167Z,98.30
2022-09-10T04:20:40.957Z,98.30
2022-09-10T04:23:10.291Z,98.30
2022-09-10T04:25:38.645Z,98.30
2022-09-10T04:28:05.762Z,98.30
2022-09-10T04:30:33.268Z,98.30
2022-09-10T04:33:00.734Z,98.30
2022-09-10T04:35:29.833Z,98.30
2022-09-10T04:37:57.882Z,98.30
2022-09-10T04:40:27.147Z,98.30
2022-09-10T04:42:53.845Z,98.30
2022-09-10T04:45:21.256Z,98.30
2022-09-10T04:47:48.014Z,98.30
2022-09-10T04:50:15.548Z,98.30
2022-09-10T04:53:02.159Z,98.30
2022-09-10T04:55:31.408Z,98.30
2022-09-10T04:57:58.077Z,98.30
2022-09-10T05:00:26.499Z,98.30
2022-09-10T05:02:53.673Z,98.30
2022-09-10T05:05:20.577Z,98.30
2022-09-10T05:07:48.571Z,98.30
2022-09-10T05:10:15.370Z,98.30
2022-09-10T05:12:42.319Z,98.30
2022-09-10T05:15:10.399Z,98.30
2022-09-10T05:17:37.158Z,98.30
2022-09-10T05:20:05.838Z,98.30
2022-09-10T05:22:40.334Z,98.30
2022-09-10T05:25:07.890Z,98.30
2022-09-10T05:27:34.666Z,98.30
2022-09-10T05:30:02.103Z,98.30
2022-09-10T05:32:30.084Z,98.30
2022-09-10T05:34:56.924Z,98.30
2022-09-10T05:37:23.778Z,98.30
2022-09-10T05:39:50.476Z,98.30
2022-09-10T05:42:18.642Z,98.30
2022-09-10T05:44:45.440Z,98.30
2022-09-10T05:47:12.081Z,98.30
2022-09-10T05:49:39.169Z,98.30
2022-09-10T05:52:06.106Z,98.30
2022-09-10T05:54:33.597Z,98.30
2022-09-10T05:57:00.552Z,98.30
2022-09-10T05:59:29.779Z,98.30
2022-09-10T06:01:56.860Z,98.30
2022-09-10T06:04:24.980Z,98.30
2022-09-10T06:06:52.029Z,98.30
2022-09-10T06:09:19.262Z,98.30
2022-09-10T06:11:53.229Z,98.30
2022-09-10T06:14:20.731Z,98.30
2022-09-10T06:16:49.326Z,98.30
2022-09-10T06:19:16.043Z,98.30
2022-09-10T06:21:42.781Z,98.30
2022-09-10T06:24:09.825Z,98.30
2022-09-10T06:26:38.263Z,98.30
2022-09-10T06:29:09.703Z,98.30
2022-09-10T06:31:37.912Z,98.30
2022-09-10T06:34:05.741Z,98.30
2022-09-10T06:36:33.878Z,98.30
2022-09-10T06:39:03.390Z,98.30
2022-09-10T06:41:37.389Z,98.30
2022-09-10T06:44:10.125Z,98.30
2022-09-10T06:49:31.226Z,98.30
2022-09-10T06:51:57.970Z,98.30
2022-09-10T06:54:26.398Z,98.30
2022-09-10T06:56:54.413Z,98.30
2022-09-10T06:59:21.712Z,98.30
2022-09-10T07:01:49.483Z,98.30
2022-09-10T07:04:17.559Z,98.30
2022-09-10T07:06:45.851Z,98.30
2022-09-10T07:09:15.356Z,98.30
2022-09-10T07:11:54.690Z,98.30
2022-09-10T07:14:21.704Z,98.30
2022-09-10T07:16:51.344Z,98.30
2022-09-10T07:19:20.512Z,98.30
2022-09-10T07:21:47.795Z,98.30
2022-09-10T07:24:16.242Z,98.30
2022-09-10T07:27:00.426Z,98.30
2022-09-10T07:29:29.679Z,98.30
2022-09-10T07:31:56.391Z,98.30
2022-09-10T07:34:24.351Z,98.30
2022-09-10T07:36:51.059Z,98.30
2022-09-10T07:39:22.403Z,98.20
2022-09-10T07:41:52.245Z,97.80
2022-09-10T07:44:22.017Z,98.10
2022-09-10T07:46:48.817Z,98.00
2022-09-10T08:52:45.509Z,98.30
2022-09-10T09:16:40.115Z,97.40
2022-09-10T09:36:53.808Z,95.70
2022-09-10T11:29:28.338Z,88.80
2022-09-10T12:01:49.353Z,89.50
2022-09-10T12:04:38.030Z,88.40
2022-09-10T12:07:35.732Z,88.90
2022-09-10T12:10:14.195Z,87.60
2022-09-10T12:12:49.969Z,86.50
2022-09-10T12:15:20.834Z,85.60
2022-09-10T12:18:18.786Z,84.00
2022-09-10T12:20:57.037Z,84.20
2022-09-10T12:23:33.566Z,84.70
2022-09-10T12:26:10.905Z,83.30
2022-09-10T12:28:43.536Z,85.10
2022-09-10T12:31:12.450Z,85.20
2022-09-10T12:33:45.236Z,83.70
2022-09-10T12:36:14.183Z,83.70
2022-09-10T12:39:03.433Z,83.50
2022-09-10T12:41:50.062Z,84.90
2022-09-10T12:44:35.070Z,85.10
2022-09-10T12:47:13.927Z,83.80
2022-09-10T12:49:50.995Z,84.60
2022-09-10T12:52:24.977Z,85.20
2022-09-10T12:54:55.652Z,85.40
2022-09-10T12:57:42.877Z,85.50
2022-09-10T13:00:21.861Z,85.60
2022-09-10T13:02:58.175Z,87.00
2022-09-10T13:05:29.922Z,88.90
2022-09-10T13:08:06.017Z,90.70
2022-09-10T13:10:32.973Z,91.80
2022-09-10T13:13:04.911Z,92.00
2022-09-10T13:15:35.644Z,92.20
2022-09-10T13:18:24.103Z,91.40
2022-09-10T13:20:51.010Z,90.90
2022-09-10T13:23:19.126Z,89.90
2022-09-10T13:25:47.678Z,88.20
2022-09-10T13:28:29.836Z,88.20
2022-09-10T13:31:08.666Z,85.90
2022-09-10T13:33:51.776Z,86.40
2022-09-10T13:36:40.019Z,86.20
2022-09-10T13:39:15.620Z,85.20
2022-09-10T13:42:02.000Z,85.10
2022-09-10T13:45:00.402Z,85.60
2022-09-10T13:48:03.063Z,85.40
2022-09-10T13:51:04.337Z,86.30
2022-09-10T13:53:33.166Z,87.30
2022-09-10T13:56:14.382Z,90.80
2022-09-10T13:58:48.415Z,94.00
2022-09-10T14:01:15.182Z,95.80
2022-09-10T14:03:42.015Z,96.40
2022-09-10T14:06:10.306Z,97.00
2022-09-10T14:08:44.476Z,97.30
2022-09-10T14:11:20.836Z,97.20
2022-09-10T14:13:55.337Z,97.20
2022-09-10T14:16:30.359Z,96.30
2022-09-10T14:18:59.665Z,96.00
2022-09-10T14:21:29.590Z,96.10
2022-09-10T14:23:58.950Z,95.70
2022-09-10T14:26:30.891Z,95.30
2022-09-10T14:29:01.010Z,95.70
2022-09-10T14:31:33.402Z,95.90
2022-09-10T14:34:24.075Z,95.60
2022-09-10T14:36:50.742Z,94.50
2022-09-10T14:39:22.800Z,94.30
2022-09-10T14:42:07.360Z,94.40
2022-09-10T14:44:40.465Z,95.20
2022-09-10T14:47:10.632Z,95.90
2022-09-10T14:49:39.456Z,96.20
2022-09-10T14:52:07.750Z,94.80
2022-09-10T14:54:35.042Z,93.70
2022-09-10T14:57:04.390Z,92.60
2022-09-10T14:59:33.557Z,93.50
2022-09-10T15:02:02.100Z,93.70
2022-09-10T15:04:30.107Z,93.90
2022-09-10T15:06:58.954Z,94.20
2022-09-10T15:09:27.636Z,94.50
2022-09-10T15:11:59.688Z,93.90
2022-09-10T15:14:26.437Z,93.60
2022-09-10T15:16:54.038Z,94.40
2022-09-10T15:19:22.133Z,94.90
2022-09-10T15:21:49.886Z,94.80
2022-09-10T15:24:22.034Z,95.10
2022-09-10T15:26:49.593Z,95.70
2022-09-10T15:29:17.815Z,95.30
2022-09-10T15:31:44.532Z,94.30
2022-09-10T15:34:11.658Z,94.70
2022-09-10T15:36:39.850Z,94.70
2022-09-10T15:39:07.852Z,94.40
2022-09-10T15:41:34.659Z,94.10
2022-09-10T15:44:02.904Z,93.00
2022-09-10T15:46:29.667Z,94.20
2022-09-10T15:48:59.379Z,93.60
2022-09-10T15:51:27.243Z,93.40
2022-09-10T15:53:54.785Z,94.10
2022-09-10T15:56:24.121Z,93.90
2022-09-10T15:58:52.635Z,93.90
2022-09-10T16:01:19.487Z,94.40
2022-09-10T16:03:50.109Z,93.70
2022-09-10T16:06:20.873Z,93.80
2022-09-10T16:08:49.461Z,93.50
2022-09-10T16:11:16.345Z,94.50
2022-09-10T16:13:43.367Z,94.60
2022-09-10T16:16:14.954Z,94.10
2022-09-10T16:18:41.789Z,95.30
2022-09-10T16:21:11.540Z,96.00
2022-09-10T16:23:40.132Z,96.30
2022-09-10T16:26:09.441Z,95.70
2022-09-10T16:28:37.138Z,95.80
2022-09-10T16:31:18.980Z,95.40
2022-09-10T16:33:46.349Z,96.00
2022-09-10T16:36:15.170Z,96.30
2022-09-10T16:38:43.829Z,96.90
2022-09-10T16:41:13.175Z,97.10
2022-09-10T16:43:41.152Z,97.10
2022-09-10T16:46:10.367Z,97.50
2022-09-10T16:48:38.607Z,97.10
2022-09-10T16:51:13.770Z,96.70
2022-09-10T16:53:42.197Z,97.00
2022-09-10T16:56:11.986Z,97.60
2022-09-10T16:58:39.492Z,97.70
2022-09-10T17:01:10.729Z,97.00
2022-09-10T17:03:45.598Z,97.50
2022-09-10T17:06:26.253Z,97.50
2022-09-10T17:09:00.608Z,97.80
2022-09-10T17:11:31.098Z,97.70
2022-09-10T17:14:01.092Z,98.00
2022-09-10T17:16:32.380Z,98.30
2022-09-10T17:19:03.020Z,98.30
2022-09-10T17:21:31.985Z,98.30
2022-09-10T17:23:59.573Z,98.30
2022-09-10T17:26:26.970Z,98.10
2022-09-10T17:29:14.788Z,98.30
2022-09-10T17:31:42.145Z,98.10
2022-09-10T17:34:12.717Z,98.30
2022-09-10T17:36:41.017Z,98.30
2022-09-10T17:39:07.713Z,98.30
2022-09-10T17:41:34.504Z,98.30
2022-09-10T17:44:01.329Z,98.30
2022-09-10T17:46:31.159Z,98.30
2022-09-10T17:49:00.128Z,98.30
2022-09-10T17:51:29.362Z,98.30
2022-09-10T17:53:56.703Z,98.30
2022-09-10T17:56:25.758Z,98.30
2022-09-10T17:59:03.628Z,98.30
2022-09-10T18:01:33.694Z,98.30
2022-09-10T18:04:00.445Z,98.10
2022-09-10T18:06:28.932Z,98.00
2022-09-10T18:08:58.979Z,97.80
2022-09-10T18:11:28.841Z,97.90
2022-09-10T18:13:57.260Z,98.30
2022-09-10T18:16:26.495Z,98.30
2022-09-10T18:18:56.260Z,98.20
2022-09-10T18:21:25.818Z,98.30
2022-09-10T18:23:58.035Z,98.20
2022-09-10T18:26:27.096Z,98.30
2022-09-10T18:28:59.293Z,98.00
2022-09-10T18:31:29.107Z,97.40
2022-09-10T18:33:56.101Z,97.70
2022-09-10T18:36:25.141Z,98.30
2022-09-10T18:38:52.778Z,98.30
2022-09-10T18:41:24.689Z,98.30
2022-09-10T18:43:53.720Z,98.30
2022-09-10T18:46:20.924Z,98.30
2022-09-10T18:48:48.337Z,98.30
2022-09-10T18:51:16.649Z,98.30
2022-09-10T18:53:45.228Z,98.30
2022-09-10T18:56:14.115Z,98.30
2022-09-10T18:58:41.192Z,98.30
2022-09-10T19:01:13.657Z,98.30
2022-09-10T19:03:42.886Z,98.30
2022-09-10T19:06:21.465Z,98.30
2022-09-10T19:08:55.090Z,98.30
2022-09-10T19:11:24.320Z,98.30
2022-09-10T19:13:53.404Z,98.30
2022-09-10T19:16:21.846Z,98.30
2022-09-10T19:18:53.433Z,98.30
2022-09-10T19:21:21.045Z,98.30
2022-09-10T19:23:49.483Z,98.30
2022-09-10T19:26:20.608Z,98.30
2022-09-10T19:28:47.853Z,98.30
2022-09-10T19:31:16.866Z,98.30
2022-09-10T19:33:43.595Z,98.30
2022-09-10T19:36:15.294Z,98.30
2022-09-10T19:38:42.416Z,98.30
2022-09-10T19:41:15.465Z,98.30
2022-09-10T19:43:42.133Z,98.30
2022-09-10T19:46:10.575Z,98.30
2022-09-10T19:48:37.711Z,98.30
2022-09-10T19:51:07.465Z,98.30
2022-09-10T19:53:35.261Z,98.30
2022-09-10T19:56:09.322Z,98.30
2022-09-10T19:58:37.426Z,98.30
2022-09-10T20:01:15.058Z,98.30
2022-09-10T20:03:44.656Z,98.30
2022-09-10T20:06:13.669Z,98.30
2022-09-10T20:08:41.477Z,98.30
2022-09-10T20:11:15.241Z,98.30
2022-09-10T20:13:42.456Z,98.30
2022-09-10T20:16:10.439Z,98.30
2022-09-10T20:18:38.094Z,98.30
2022-09-10T20:21:31.112Z,98.30
2022-09-10T20:23:58.430Z,98.30
2022-09-10T20:26:28.123Z,98.30
2022-09-10T20:28:57.220Z,98.30
2022-09-10T20:31:26.936Z,98.30
2022-09-10T20:33:56.347Z,98.30
2022-09-10T20:36:25.170Z,98.30
2022-09-10T20:38:53.249Z,98.30
2022-09-10T20:41:20.722Z,98.30
2022-09-10T20:43:54.134Z,98.30
2022-09-10T20:46:22.328Z,98.30
2022-09-10T20:48:50.399Z,98.30
2022-09-10T20:51:18.716Z,98.30
2022-09-10T20:53:45.456Z,98.30
2022-09-10T20:56:15.058Z,98.30
2022-09-10T20:58:42.149Z,98.30
2022-09-10T21:01:11.450Z,98.30
2022-09-10T21:03:39.814Z,98.30
2022-09-10T21:06:08.284Z,98.30
2022-09-10T21:08:39.535Z,98.30
2022-09-10T21:11:08.869Z,98.30
2022-09-10T21:13:37.417Z,98.30
2022-09-10T21:16:15.250Z,98.30
2022-09-10T21:18:42.737Z,98.30
2022-09-10T21:21:12.028Z,98.30
2022-09-10T21:23:47.229Z,98.30
2022-09-10T21:26:15.329Z,98.30
2022-09-10T21:28:42.533Z,98.30
2022-09-10T21:31:09.723Z,98.30
2022-09-10T21:33:37.198Z,98.30
2022-09-10T21:36:10.360Z,98.30
2022-09-10T21:38:37.982Z,98.30
2022-09-10T21:41:06.852Z,98.30
2022-09-10T21:43:34.941Z,98.30
2022-09-10T21:46:03.359Z,98.30
2022-09-10T21:48:30.959Z,98.30
2022-09-10T21:50:59.131Z,98.30
2022-09-10T21:53:27.377Z,98.30
2022-09-10T21:55:59.060Z,98.30
2022-09-10T21:58:27.908Z,98.30
2022-09-10T22:00:58.303Z,98.30
2022-09-10T22:03:26.737Z,98.30
2022-09-10T22:05:53.370Z,98.30
2022-09-10T22:08:20.060Z,98.30
2022-09-10T22:10:47.132Z,98.30
2022-09-10T22:13:13.801Z,98.30
2022-09-10T22:15:44.023Z,98.30
2022-09-10T22:18:10.713Z,98.30
2022-09-10T22:20:37.520Z,98.30
2022-09-10T22:23:04.564Z,98.30
2022-09-10T22:25:31.266Z,98.30
2022-09-10T22:27:58.225Z,98.30
2022-09-10T22:30:28.667Z,98.30
2022-09-10T22:32:56.841Z,98.30
2022-09-10T22:35:26.631Z,98.30
2022-09-10T22:37:57.121Z,98.30
2022-09-10T22:40:24.505Z,98.30
2022-09-10T22:42:51.880Z,98.30
2022-09-10T22:45:20.614Z,98.30
2022-09-10T22:47:50.190Z,98.30
2022-09-10T22:50:16.944Z,98.30
2022-09-10T22:52:44.216Z,98.30
2022-09-10T22:55:10.930Z,98.30
2022-09-10T22:57:39.457Z,98.30
2022-09-10T23:00:07.896Z,98.30
2022-09-10T23:02:34.512Z,98.30
2022-09-10T23:05:01.362Z,98.30
2022-09-10T23:07:27.990Z,98.30
2022-09-10T23:09:55.108Z,98.30
2022-09-10T23:12:22.006Z,98.30
2022-09-10T23:14:48.731Z,98.30
2022-09-10T23:17:17.552Z,98.30
2022-09-10T23:19:47.314Z,98.30
2022-09-10T23:22:14.005Z,98.30
2022-09-10T23:24:40.631Z,98.30
2022-09-10T23:27:07.236Z,98.30
2022-09-10T23:29:35.315Z,98.30
2022-09-10T23:32:02.149Z,98.30
2022-09-10T23:34:28.790Z,98.30
2022-09-10T23:36:55.488Z,98.30
2022-09-10T23:39:24.054Z,98.30
2022-09-10T23:41:53.649Z,98.30
2022-09-10T23:44:20.375Z,98.30
2022-09-10T23:46:47.138Z,98.30
2022-09-10T23:49:14.424Z,98.30
2022-09-10T23:51:41.088Z,98.30
2022-09-10T23:54:08.795Z,98.30
2022-09-10T23:56:35.428Z,98.30
2022-09-10T23:59:03.394Z,98.30
